KRWF/RWF METAR and TAF weather

Enter ICAO airport designator
Station Type Date Time Source
KRWF METAR 2019/12/12 16:53 UTC NOAA

KRWF 121653Z AUTO 36008KT 5SM HZ OVC015 M11/M14 A3005 RMK AO2 SLP199 T11061139


Station Type Date Time Source
KRWF Decoded METAR 2019/12/12 16:53 UTC NOAA

REDWOOD FALLS MUNICIPAL, MN, United States (KRWF) 44-33N 95-05W 311M
Dec 12, 2019 - 11:53 AM EST / 2019.12.12 1653 UTC
Wind: from the N (360 degrees) at 9 MPH (8 KT):0
Visibility: 5 mile(s):0
Sky conditions: overcast
Weather: haze
Temperature: 12.9 F (-10.6 C)
Windchill: 1 F (-17 C):1
Dew Point: 7.0 F (-13.9 C)
Relative Humidity: 76%
Pressure (altimeter): 30.05 in. Hg (1017 hPa)
ob: KRWF 121653Z AUTO 36008KT 5SM HZ OVC015 M11/M14 A3005 RMK AO2 SLP199 T11061139
cycle: 17

Station Type Date Time Source
KRWF TAF 2019/12/12 12:33 UTC NOAA

TAF KRWF 121131Z 1212/1312 08008KT P6SM OVC018
TEMPO 1212/1215 5SM -SN
FM121500 36006KT P6SM OVC015
FM122100 33005KT P6SM OVC015
FM130800 15005KT P6SM OVC015

Example: see airport list